Time;durP1;ratioP1;P1;durP2;ratioP2;P2;SDS_P1;SDS_P2;PMS_P1;PMS_P2;Temp;Humidity;BMP_temperature;BMP_pressure;BME280_temperature;BME280_humidity;BME280_pressure;Samples;Min_cycle;Max_cycle;Signal;HPM_P1;HPM_P2
2021/08/14 00:00:56;;;;;;;3.20;2.85;;;22.70;60.90;;;;;;5047901;28;20268;-70
2021/08/14 00:03:23;;;;;;;3.03;2.72;;;22.60;61.10;;;;;;5048634;28;20194;-70
2021/08/14 00:05:50;;;;;;;2.88;2.67;;;22.60;61.30;;;;;;5046899;28;20210;-69
2021/08/14 00:08:17;;;;;;;2.72;2.53;;;22.60;61.60;;;;;;5047094;28;20203;-70
2021/08/14 00:10:44;;;;;;;2.78;2.58;;;22.60;61.80;;;;;;5047690;28;20198;-70
2021/08/14 00:13:12;;;;;;;2.97;2.78;;;22.60;62.00;;;;;;5048069;28;20218;-69
2021/08/14 00:15:39;;;;;;;2.65;2.45;;;22.60;62.10;;;;;;5047040;28;20692;-69
2021/08/14 00:18:06;;;;;;;2.58;2.38;;;22.60;62.20;;;;;;5048313;28;20316;-70
2021/08/14 00:20:33;;;;;;;2.63;2.42;;;22.60;62.30;;;;;;5047336;28;20209;-70
2021/08/14 00:23:00;;;;;;;2.85;2.28;;;22.50;62.30;;;;;;5044714;28;20246;-70
2021/08/14 00:25:27;;;;;;;2.75;2.55;;;22.60;62.60;;;;;;5047305;28;20297;-70
2021/08/14 00:27:54;;;;;;;2.38;2.17;;;22.60;62.80;;;;;;5047970;28;20208;-69
2021/08/14 00:30:23;;;;;;;2.15;2.05;;;22.60;63.00;;;;;;5047841;28;20198;-69
2021/08/14 00:32:51;;;;;;;4.43;2.80;;;22.60;63.10;;;;;;5046745;28;20214;-70
2021/08/14 00:35:18;;;;;;;2.80;2.60;;;22.60;63.50;;;;;;5047554;28;20285;-69
2021/08/14 00:37:45;;;;;;;2.72;2.45;;;22.60;63.60;;;;;;5046105;28;20237;-69
2021/08/14 00:40:14;;;;;;;3.05;2.85;;;22.60;63.70;;;;;;5045808;28;20197;-70
2021/08/14 00:42:41;;;;;;;3.45;3.25;;;22.60;64.20;;;;;;5050908;28;20597;-70
2021/08/14 00:45:09;;;;;;;3.00;2.80;;;22.50;64.30;;;;;;5043855;28;20197;-70
2021/08/14 00:47:41;;;;;;;2.38;2.28;;;22.60;64.50;;;;;;5047327;28;20197;-70
2021/08/14 00:50:09;;;;;;;2.35;2.25;;;22.60;64.70;;;;;;5046276;28;20283;-70
2021/08/14 00:52:36;;;;;;;2.70;2.50;;;22.60;64.70;;;;;;5046146;28;20202;-70
2021/08/14 00:55:03;;;;;;;2.85;2.65;;;22.60;64.90;;;;;;5047656;28;20205;-69
2021/08/14 00:57:30;;;;;;;2.60;2.33;;;22.60;65.00;;;;;;5050897;28;20229;-69
2021/08/14 00:59:57;;;;;;;2.28;2.08;;;22.60;65.90;;;;;;5046187;28;20247;-69
2021/08/14 01:02:24;;;;;;;2.53;2.38;;;22.70;65.30;;;;;;5047893;28;20202;-69
2021/08/14 01:04:53;;;;;;;2.35;2.20;;;22.60;65.30;;;;;;5047502;28;20611;-69
2021/08/14 01:07:21;;;;;;;2.60;2.50;;;22.70;65.50;;;;;;5045665;28;20597;-69
2021/08/14 01:09:49;;;;;;;3.78;3.45;;;22.70;65.60;;;;;;5046163;28;20202;-69
2021/08/14 01:12:17;;;;;;;3.42;3.13;;;22.70;66.30;;;;;;5047611;28;20697;-69
2021/08/14 01:14:45;;;;;;;3.40;3.10;;;22.70;66.60;;;;;;5045299;28;20624;-69
2021/08/14 01:17:12;;;;;;;2.97;2.78;;;22.60;66.80;;;;;;5044840;28;20214;-70
2021/08/14 01:19:39;;;;;;;2.80;2.60;;;22.60;67.10;;;;;;5047637;28;20260;-70
2021/08/14 01:22:11;;;;;;;2.33;2.22;;;22.60;67.30;;;;;;5046705;28;20299;-69
2021/08/14 01:24:38;;;;;;;2.42;2.33;;;22.60;67.50;;;;;;5045089;28;20198;-70
2021/08/14 01:27:08;;;;;;;2.80;2.60;;;22.60;67.70;;;;;;5046101;28;20569;-69
2021/08/14 01:29:36;;;;;;;2.95;2.75;;;22.70;68.00;;;;;;5047360;28;20252;-69
2021/08/14 01:32:04;;;;;;;2.78;2.58;;;22.70;68.30;;;;;;5032175;28;20209;-69
2021/08/14 01:34:31;;;;;;;3.28;3.08;;;22.70;68.60;;;;;;5048014;28;20240;-69
2021/08/14 01:36:59;;;;;;;2.33;2.22;;;22.70;68.90;;;;;;5051153;28;20217;-69
2021/08/14 01:39:27;;;;;;;2.33;2.13;;;22.70;69.80;;;;;;5049000;28;20201;-69
2021/08/14 01:41:58;;;;;;;2.33;2.22;;;22.70;69.20;;;;;;5051491;28;20725;-69
2021/08/14 01:44:28;;;;;;;2.03;1.92;;;22.70;69.30;;;;;;5050264;28;20202;-69
2021/08/14 01:46:54;;;;;;;2.38;2.28;;;22.70;69.50;;;;;;5050708;28;20236;-69
2021/08/14 01:49:22;;;;;;;2.47;2.30;;;22.70;69.70;;;;;;5046364;28;20213;-69
2021/08/14 01:51:49;;;;;;;2.08;1.98;;;22.70;70.00;;;;;;5051269;28;20198;-69
2021/08/14 01:54:16;;;;;;;1.98;1.88;;;22.70;70.30;;;;;;5048269;28;20671;-69
2021/08/14 01:56:44;;;;;;;2.20;2.10;;;22.70;70.50;;;;;;5052266;28;20483;-69
2021/08/14 01:59:11;;;;;;;2.53;2.28;;;22.70;70.80;;;;;;5050008;28;20198;-69
2021/08/14 02:01:40;;;;;;;2.08;1.98;;;22.70;71.10;;;;;;5050603;28;20661;-69
2021/08/14 02:04:08;;;;;;;2.17;2.08;;;22.70;71.40;;;;;;5050881;28;20253;-69
2021/08/14 02:06:35;;;;;;;2.40;2.30;;;22.70;71.70;;;;;;5050701;28;20646;-69
2021/08/14 02:09:03;;;;;;;2.05;1.95;;;22.70;72.00;;;;;;5045836;28;20217;-70
2021/08/14 02:11:33;;;;;;;2.20;2.10;;;22.70;72.20;;;;;;5050254;28;20222;-70
2021/08/14 02:14:00;;;;;;;1.95;1.85;;;22.70;72.50;;;;;;5048531;28;20574;-70
2021/08/14 02:16:29;;;;;;;2.30;2.20;;;22.60;72.60;;;;;;5049416;28;20768;-69
2021/08/14 02:18:58;;;;;;;2.30;2.20;;;22.70;72.90;;;;;;5049963;28;20194;-69
2021/08/14 02:21:25;;;;;;;2.70;2.50;;;22.60;73.10;;;;;;5049225;28;20198;-69
2021/08/14 02:23:52;;;;;;;3.38;3.15;;;22.60;73.20;;;;;;5049106;28;20205;-69
2021/08/14 02:26:19;;;;;;;3.08;2.88;;;22.60;73.50;;;;;;5048342;28;20288;-69
2021/08/14 02:28:46;;;;;;;3.03;2.80;;;22.60;73.50;;;;;;5046853;28;20566;-69
2021/08/14 02:31:13;;;;;;;2.97;2.78;;;22.60;73.60;;;;;;5050133;28;20208;-69
2021/08/14 02:33:40;;;;;;;3.13;2.83;;;22.60;73.60;;;;;;5048820;28;20302;-69
2021/08/14 02:36:09;;;;;;;2.92;2.65;;;22.60;73.80;;;;;;5050041;28;20670;-69
2021/08/14 02:38:38;;;;;;;2.70;2.50;;;22.60;74.00;;;;;;5048109;28;20304;-69
2021/08/14 02:41:07;;;;;;;3.15;2.88;;;22.60;74.20;;;;;;5050058;28;20523;-69
2021/08/14 02:43:36;;;;;;;2.97;2.80;;;22.60;74.70;;;;;;5044739;28;20209;-69
2021/08/14 02:46:03;;;;;;;3.20;3.00;;;22.60;75.30;;;;;;5043947;28;20221;-68
2021/08/14 02:48:30;;;;;;;4.75;3.05;;;22.60;75.90;;;;;;5048151;28;20226;-69
2021/08/14 02:50:57;;;;;;;3.35;3.10;;;22.60;76.80;;;;;;5049994;28;20213;-69
2021/08/14 02:53:26;;;;;;;3.20;2.97;;;22.60;77.60;;;;;;5048370;28;20201;-68
2021/08/14 02:55:53;;;;;;;3.55;3.35;;;22.60;78.30;;;;;;5049448;28;20202;-69
2021/08/14 02:58:20;;;;;;;3.78;3.30;;;22.60;79.70;;;;;;5040182;28;20230;-68
2021/08/14 03:00:47;;;;;;;3.65;3.35;;;22.50;80.70;;;;;;5064245;28;20245;-68
2021/08/14 03:03:14;;;;;;;3.05;2.85;;;22.50;82.00;;;;;;5048256;28;20205;-69
2021/08/14 03:05:41;;;;;;;3.38;3.10;;;22.50;82.80;;;;;;5049394;28;20735;-69
2021/08/14 03:08:09;;;;;;;3.28;3.08;;;22.40;83.80;;;;;;5048099;28;20583;-69
2021/08/14 03:10:38;;;;;;;3.70;3.40;;;22.40;85.10;;;;;;5048402;28;20727;-68
2021/08/14 03:13:05;;;;;;;3.50;3.20;;;22.40;86.90;;;;;;5049531;28;20229;-69
2021/08/14 03:15:32;;;;;;;4.45;4.05;;;22.40;88.10;;;;;;5048684;28;20209;-68
2021/08/14 03:17:59;;;;;;;4.10;3.80;;;22.40;89.30;;;;;;5048049;28;20245;-70
2021/08/14 03:20:26;;;;;;;3.60;3.35;;;22.30;90.00;;;;;;5049548;28;20226;-70
2021/08/14 03:22:53;;;;;;;2.65;2.45;;;22.30;90.20;;;;;;5047154;28;20237;-70
2021/08/14 03:25:20;;;;;;;3.30;3.00;;;22.30;90.40;;;;;;5042409;28;20198;-69
2021/08/14 03:27:48;;;;;;;2.72;2.53;;;22.30;90.50;;;;;;5048286;28;20837;-69
2021/08/14 03:30:16;;;;;;;2.42;2.30;;;22.30;90.40;;;;;;5049169;28;20658;-69
2021/08/14 03:32:45;;;;;;;2.38;2.25;;;22.30;90.30;;;;;;5048936;28;20462;-68
2021/08/14 03:35:12;;;;;;;2.55;2.35;;;22.30;90.20;;;;;;5049437;28;20237;-69
2021/08/14 03:37:39;;;;;;;2.42;2.22;;;22.20;90.10;;;;;;5046748;28;20232;-69
2021/08/14 03:40:08;;;;;;;2.03;1.92;;;22.20;90.00;;;;;;5052731;28;20237;-69
2021/08/14 03:42:35;;;;;;;2.05;1.95;;;22.20;89.70;;;;;;5046993;28;20555;-69
2021/08/14 03:45:05;;;;;;;4.00;1.98;;;22.20;89.50;;;;;;5048871;28;20668;-69
2021/08/14 03:47:31;;;;;;;2.00;1.88;;;22.20;89.30;;;;;;5046341;28;20942;-69
2021/08/14 03:49:58;;;;;;;2.20;2.00;;;22.20;89.20;;;;;;5049111;28;20206;-69
2021/08/14 03:52:25;;;;;;;2.10;1.90;;;22.20;89.30;;;;;;5044417;28;20198;-69
2021/08/14 03:54:52;;;;;;;1.90;1.80;;;22.20;89.30;;;;;;5047086;28;20213;-69
2021/08/14 03:57:19;;;;;;;1.90;1.80;;;22.10;89.20;;;;;;5048149;28;20232;-69
2021/08/14 03:59:46;;;;;;;2.20;1.48;;;22.10;89.20;;;;;;5040979;28;20197;-69
2021/08/14 04:02:14;;;;;;;1.80;1.70;;;22.10;89.20;;;;;;5048225;28;20205;-69
2021/08/14 04:04:41;;;;;;;2.95;1.95;;;22.10;89.20;;;;;;5034516;28;20199;-69
2021/08/14 04:07:08;;;;;;;2.50;1.90;;;22.10;89.40;;;;;;5047986;28;20225;-69
2021/08/14 04:09:35;;;;;;;2.05;1.90;;;22.10;89.30;;;;;;5046036;28;20201;-69
2021/08/14 04:12:01;;;;;;;1.60;1.50;;;22.10;89.30;;;;;;5047137;28;20213;-69
2021/08/14 04:14:28;;;;;;;1.50;1.40;;;22.10;89.40;;;;;;5047615;28;20213;-70
2021/08/14 04:16:55;;;;;;;2.47;1.98;;;22.10;89.40;;;;;;5047673;28;20694;-69
2021/08/14 04:19:24;;;;;;;2.03;1.88;;;22.10;89.80;;;;;;5047073;28;20673;-69
2021/08/14 04:21:51;;;;;;;1.77;1.63;;;22.10;90.00;;;;;;5047224;28;20299;-69
2021/08/14 04:24:18;;;;;;;1.80;1.70;;;22.10;90.00;;;;;;5045325;28;20237;-70
2021/08/14 04:26:44;;;;;;;1.40;1.40;;;22.20;90.00;;;;;;5048256;28;20244;-69
2021/08/14 04:29:11;;;;;;;1.88;1.77;;;22.20;90.00;;;;;;5047117;28;20689;-70
2021/08/14 04:31:38;;;;;;;1.98;1.65;;;22.20;90.10;;;;;;5047721;28;20212;-70
2021/08/14 04:34:05;;;;;;;1.67;1.58;;;22.20;90.20;;;;;;5047507;28;20565;-70
2021/08/14 04:36:33;;;;;;;1.90;1.80;;;22.20;90.40;;;;;;5048473;28;20236;-70
2021/08/14 04:39:00;;;;;;;1.90;1.80;;;22.20;90.60;;;;;;5045384;28;20209;-68
2021/08/14 04:41:27;;;;;;;1.83;1.73;;;22.20;90.70;;;;;;5047987;28;20206;-69
2021/08/14 04:43:54;;;;;;;1.70;1.60;;;22.30;91.00;;;;;;5047482;28;20205;-69
2021/08/14 04:46:21;;;;;;;2.17;2.00;;;22.30;91.10;;;;;;5047845;28;20205;-69
2021/08/14 04:48:48;;;;;;;1.80;1.70;;;22.30;91.20;;;;;;5047182;28;20198;-69
2021/08/14 04:51:15;;;;;;;1.80;1.70;;;22.40;91.40;;;;;;5047215;28;20296;-69
2021/08/14 04:53:43;;;;;;;1.75;1.65;;;22.40;91.50;;;;;;5044959;28;20198;-69
2021/08/14 04:56:10;;;;;;;1.85;1.75;;;22.40;91.60;;;;;;5043326;28;20201;-69
2021/08/14 04:58:37;;;;;;;2.25;1.77;;;22.50;91.80;;;;;;5047457;28;20620;-69
2021/08/14 05:01:04;;;;;;;1.50;1.40;;;22.50;91.80;;;;;;5047323;28;20304;-69
2021/08/14 05:03:31;;;;;;;2.92;1.60;;;22.60;92.00;;;;;;5047906;28;20719;-69
2021/08/14 05:05:58;;;;;;;1.73;1.63;;;22.60;92.20;;;;;;5048288;28;20205;-69
2021/08/14 05:08:24;;;;;;;1.60;1.50;;;22.70;92.40;;;;;;5047208;28;20593;-69
2021/08/14 05:10:53;;;;;;;1.52;1.40;;;22.70;92.40;;;;;;5051201;28;20197;-69
2021/08/14 05:13:20;;;;;;;1.52;1.42;;;22.80;92.50;;;;;;5051307;28;20204;-69
2021/08/14 05:15:47;;;;;;;1.65;1.55;;;22.90;92.60;;;;;;5049692;28;20717;-69
2021/08/14 05:18:15;;;;;;;1.48;1.38;;;22.90;92.70;;;;;;5050706;28;20225;-69
2021/08/14 05:20:42;;;;;;;1.50;1.40;;;23.00;92.70;;;;;;5051569;28;20384;-69
2021/08/14 05:23:09;;;;;;;1.55;1.45;;;23.00;92.70;;;;;;5049701;28;20602;-69
2021/08/14 05:25:36;;;;;;;1.40;1.30;;;23.00;92.70;;;;;;5051208;28;20225;-69
2021/08/14 05:28:05;;;;;;;2.15;1.75;;;23.10;92.70;;;;;;5050901;28;20248;-69
2021/08/14 05:30:32;;;;;;;1.80;1.70;;;23.10;92.70;;;;;;5050822;28;20547;-69
2021/08/14 05:32:58;;;;;;;1.90;1.80;;;23.20;92.60;;;;;;5050977;28;20217;-69
2021/08/14 05:35:26;;;;;;;1.70;1.60;;;23.30;92.60;;;;;;5043827;28;20280;-69
2021/08/14 05:37:53;;;;;;;2.25;1.90;;;23.40;92.60;;;;;;5049486;28;20221;-70
2021/08/14 05:40:19;;;;;;;2.05;1.85;;;23.40;92.50;;;;;;5050811;28;20228;-70
2021/08/14 05:42:46;;;;;;;2.15;1.95;;;23.50;92.40;;;;;;5050933;28;20232;-69
2021/08/14 05:45:15;;;;;;;2.55;2.35;;;23.60;92.30;;;;;;5050930;28;20925;-70
2021/08/14 05:47:41;;;;;;;2.28;2.08;;;23.60;92.20;;;;;;5050614;28;20194;-70
2021/08/14 05:50:09;;;;;;;1.88;1.77;;;23.70;92.10;;;;;;5051072;28;20206;-70
2021/08/14 05:52:37;;;;;;;2.30;2.10;;;23.70;91.80;;;;;;5049247;28;20268;-70
2021/08/14 05:55:04;;;;;;;2.60;2.40;;;23.80;91.60;;;;;;5049494;28;20198;-70
2021/08/14 05:57:31;;;;;;;2.45;2.25;;;23.90;91.50;;;;;;5051108;28;20580;-70
2021/08/14 05:59:58;;;;;;;2.95;2.28;;;24.00;91.30;;;;;;5050066;28;20662;-69
2021/08/14 06:02:26;;;;;;;1.98;1.88;;;24.20;91.10;;;;;;5038932;28;20194;-70
2021/08/14 06:04:53;;;;;;;2.42;1.98;;;24.40;90.70;;;;;;5050851;28;20589;-69
2021/08/14 06:07:20;;;;;;;2.10;1.90;;;24.60;90.40;;;;;;5050952;28;20214;-69
2021/08/14 06:09:47;;;;;;;2.25;2.05;;;24.90;90.10;;;;;;5047664;28;20201;-69
2021/08/14 06:12:14;;;;;;;1.83;1.70;;;25.20;89.10;;;;;;5039618;28;20202;-69
2021/08/14 06:14:41;;;;;;;2.17;1.98;;;25.30;87.90;;;;;;5049982;28;20593;-69
2021/08/14 06:17:08;;;;;;;2.83;1.60;;;25.50;87.20;;;;;;5048626;28;20740;-70
2021/08/14 06:19:37;;;;;;;2.55;1.92;;;25.70;86.30;;;;;;5044765;28;20698;-70
2021/08/14 06:22:04;;;;;;;1.58;1.48;;;26.00;85.30;;;;;;5049558;28;20234;-69
2021/08/14 06:24:32;;;;;;;1.52;1.42;;;26.20;84.40;;;;;;5047944;28;20270;-69
2021/08/14 06:26:58;;;;;;;1.75;1.52;;;26.50;83.00;;;;;;5050704;28;20210;-69
2021/08/14 06:29:25;;;;;;;1.90;1.65;;;26.90;81.60;;;;;;5049085;28;20197;-69
2021/08/14 06:31:52;;;;;;;3.08;1.80;;;27.30;80.20;;;;;;5050713;28;20206;-70
2021/08/14 06:34:19;;;;;;;2.47;2.05;;;27.60;78.40;;;;;;5049507;28;20604;-70
2021/08/14 06:36:48;;;;;;;5.32;2.22;;;27.80;77.30;;;;;;5043822;28;20304;-70
2021/08/14 06:39:15;;;;;;;1.88;1.50;;;28.30;75.40;;;;;;5046652;28;20218;-70
2021/08/14 06:41:42;;;;;;;1.73;1.63;;;28.50;74.20;;;;;;5050209;28;20201;-70
2021/08/14 06:44:09;;;;;;;2.33;1.70;;;28.50;73.00;;;;;;5048250;28;20732;-70
2021/08/14 06:46:36;;;;;;;1.70;1.60;;;28.60;71.80;;;;;;5050140;28;20197;-70
2021/08/14 06:49:03;;;;;;;1.90;1.60;;;28.70;71.00;;;;;;5049547;28;20721;-70
2021/08/14 06:51:30;;;;;;;1.48;1.38;;;28.80;70.50;;;;;;5049550;28;20315;-71
2021/08/14 06:53:58;;;;;;;1.70;1.50;;;29.00;69.40;;;;;;5046941;28;20240;-70
2021/08/14 06:56:25;;;;;;;3.58;1.90;;;29.50;68.00;;;;;;5050368;28;20198;-70
2021/08/14 06:58:52;;;;;;;1.63;1.52;;;29.70;66.50;;;;;;5049940;28;20217;-70
2021/08/14 07:01:19;;;;;;;3.45;1.55;;;29.60;66.30;;;;;;5037247;28;20210;-70
2021/08/14 07:03:46;;;;;;;5.00;2.00;;;30.00;65.40;;;;;;5048094;28;20233;-70
2021/08/14 07:06:19;;;;;;;1.55;1.30;;;30.00;64.60;;;;;;5049812;28;20255;-70
2021/08/14 07:08:47;;;;;;;1.73;1.63;;;30.10;64.20;;;;;;5048005;28;20708;-70
2021/08/14 07:11:16;;;;;;;2.10;1.90;;;30.00;63.60;;;;;;5048751;28;20427;-70
2021/08/14 07:13:43;;;;;;;2.05;1.83;;;29.80;63.30;;;;;;5049351;28;20681;-70
2021/08/14 07:16:10;;;;;;;2.97;1.80;;;29.80;62.80;;;;;;5047562;28;20247;-70
2021/08/14 07:18:37;;;;;;;4.35;1.88;;;30.50;61.80;;;;;;5046808;28;20225;-70
2021/08/14 07:21:04;;;;;;;5.43;2.38;;;31.90;59.20;;;;;;5048775;28;20201;-71
2021/08/14 07:23:31;;;;;;;3.72;2.42;;;33.30;56.20;;;;;;5046320;28;20802;-71
2021/08/14 07:25:58;;;;;;;2.53;2.13;;;34.60;53.30;;;;;;5048777;28;20238;-70
2021/08/14 07:28:27;;;;;;;5.47;2.45;;;35.80;50.90;;;;;;5049462;28;20221;-70
2021/08/14 07:30:54;;;;;;;2.45;2.03;;;36.70;47.60;;;;;;5047766;28;20206;-71
2021/08/14 07:33:21;;;;;;;3.95;2.30;;;37.60;45.80;;;;;;5048957;28;20611;-70
2021/08/14 07:35:48;;;;;;;2.85;2.20;;;38.30;43.20;;;;;;5048142;28;20194;-70
2021/08/14 07:38:15;;;;;;;2.60;2.40;;;39.00;40.90;;;;;;5047866;28;20209;-70
2021/08/14 07:40:43;;;;;;;3.03;2.70;;;39.50;39.80;;;;;;5047972;28;20596;-70
2021/08/14 07:43:10;;;;;;;2.58;2.38;;;40.20;38.90;;;;;;5047369;28;20248;-70
2021/08/14 07:45:38;;;;;;;3.17;2.85;;;40.90;37.80;;;;;;5048202;28;20213;-71
2021/08/14 07:48:06;;;;;;;2.83;2.55;;;41.40;36.20;;;;;;5047620;28;20198;-71
2021/08/14 07:50:35;;;;;;;3.75;2.53;;;41.70;35.60;;;;;;5044877;28;20946;-70
2021/08/14 07:53:03;;;;;;;3.55;2.40;;;42.00;34.90;;;;;;5046973;28;20676;-71
2021/08/14 07:55:30;;;;;;;3.65;2.67;;;42.00;34.50;;;;;;5049049;28;20589;-71
2021/08/14 07:57:57;;;;;;;2.63;2.42;;;41.90;34.10;;;;;;5048740;28;20201;-70
2021/08/14 08:00:25;;;;;;;3.95;2.22;;;41.20;34.60;;;;;;5046487;28;20236;-71
2021/08/14 08:02:54;;;;;;;3.97;2.35;;;40.10;34.60;;;;;;5048330;28;20213;-70
2021/08/14 08:05:21;;;;;;;3.03;2.13;;;38.80;35.80;;;;;;5049197;28;20225;-70
2021/08/14 08:07:48;;;;;;;2.15;1.95;;;37.50;36.70;;;;;;5047123;28;20201;-70
2021/08/14 08:10:17;;;;;;;2.38;2.17;;;36.50;37.80;;;;;;5047626;28;20194;-70
2021/08/14 08:12:44;;;;;;;2.10;2.00;;;36.30;38.30;;;;;;5047842;28;20204;-70
2021/08/14 08:15:13;;;;;;;4.68;2.80;;;36.70;38.10;;;;;;5047697;28;20631;-70
2021/08/14 08:17:40;;;;;;;3.42;2.25;;;37.00;37.70;;;;;;5041248;28;20201;-70
2021/08/14 08:20:10;;;;;;;2.13;1.92;;;36.50;37.90;;;;;;5046704;28;20695;-70
2021/08/14 08:22:37;;;;;;;3.75;2.22;;;36.80;38.00;;;;;;5046605;28;20252;-70
2021/08/14 08:25:05;;;;;;;2.10;2.00;;;37.70;37.10;;;;;;5047376;28;20615;-69
2021/08/14 08:27:32;;;;;;;4.07;1.88;;;37.90;36.60;;;;;;5048146;28;20678;-69
2021/08/14 08:29:59;;;;;;;2.65;2.42;;;38.10;36.60;;;;;;5048226;28;20185;-69
2021/08/14 08:32:26;;;;;;;2.50;2.08;;;38.60;35.70;;;;;;5048101;28;20255;-69
2021/08/14 08:34:53;;;;;;;2.25;1.98;;;39.30;35.30;;;;;;5041689;28;20198;-70
2021/08/14 08:37:21;;;;;;;4.90;2.30;;;39.80;34.80;;;;;;5044773;28;20239;-70
2021/08/14 08:39:48;;;;;;;4.15;2.65;;;40.40;33.80;;;;;;5035655;28;20312;-70
2021/08/14 08:42:15;;;;;;;3.47;2.63;;;41.00;33.30;;;;;;5044333;28;20255;-71
2021/08/14 08:44:42;;;;;;;4.07;3.00;;;40.60;33.10;;;;;;5046509;28;20216;-71
2021/08/14 08:47:10;;;;;;;4.63;2.55;;;40.20;33.40;;;;;;5041865;28;20208;-71
2021/08/14 08:49:43;;;;;;;3.88;2.50;;;40.10;33.40;;;;;;5032474;28;20193;-71
2021/08/14 08:52:10;;;;;;;5.68;2.53;;;40.20;33.10;;;;;;5045835;28;20194;-71
2021/08/14 08:54:40;;;;;;;5.05;2.60;;;40.30;33.00;;;;;;5045484;28;20197;-71
2021/08/14 08:57:06;;;;;;;2.95;2.65;;;40.60;33.50;;;;;;5047453;28;20557;-71
2021/08/14 08:59:33;;;;;;;3.40;2.40;;;40.80;32.50;;;;;;5039279;28;20696;-70
2021/08/14 09:02:00;;;;;;;7.53;3.00;;;40.70;32.60;;;;;;5044376;28;20705;-71
2021/08/14 09:04:28;;;;;;;3.45;2.35;;;40.60;32.50;;;;;;5046435;28;20519;-71
2021/08/14 09:06:57;;;;;;;5.72;2.70;;;40.60;32.60;;;;;;5047543;28;20208;-71
2021/08/14 09:09:29;;;;;;;4.15;2.22;;;40.40;32.30;;;;;;5045392;28;20219;-71
2021/08/14 09:12:03;;;;;;;3.10;2.00;;;39.50;32.60;;;;;;5047699;28;20267;-71
2021/08/14 09:14:30;;;;;;;2.40;2.13;;;39.00;32.90;;;;;;5046536;28;20311;-70
2021/08/14 09:17:08;;;;;;;5.28;2.53;;;38.90;33.10;;;;;;5044151;28;20205;-70
2021/08/14 09:19:35;;;;;;;4.43;2.85;;;38.70;33.20;;;;;;5044945;28;20224;-70
2021/08/14 09:22:17;;;;;;;4.82;2.42;;;38.40;33.50;;;;;;5046582;28;20237;-70
2021/08/14 09:24:44;;;;;;;3.90;2.60;;;38.50;33.40;;;;;;5048278;28;20216;-70
2021/08/14 09:27:15;;;;;;;3.00;2.55;;;38.20;33.30;;;;;;5047076;28;20185;-70
2021/08/14 09:29:44;;;;;;;3.97;2.60;;;37.90;33.30;;;;;;5046911;28;20204;-70
2021/08/14 09:32:12;;;;;;;3.42;2.40;;;38.10;33.40;;;;;;5045797;28;20200;-70
2021/08/14 09:34:41;;;;;;;3.55;2.28;;;38.40;33.20;;;;;;5038710;28;20590;-70
2021/08/14 09:37:09;;;;;;;1.98;1.88;;;38.90;32.70;;;;;;5047535;28;20206;-69
2021/08/14 09:39:51;;;;;;;3.28;2.30;;;39.20;32.20;;;;;;5044745;28;20217;-70
2021/08/14 09:42:19;;;;;;;3.38;2.50;;;39.10;32.00;;;;;;5045673;28;20711;-69
2021/08/14 09:44:46;;;;;;;2.40;2.20;;;39.00;32.20;;;;;;5040504;28;21304;-76
2021/08/14 09:47:31;;;;;;;2.10;2.00;;;38.80;32.40;;;;;;5046589;28;20596;-82
2021/08/14 09:49:58;;;;;;;2.38;2.13;;;38.80;32.70;;;;;;5044224;28;20217;-78
2021/08/14 09:52:27;;;;;;;2.47;2.28;;;38.80;32.80;;;;;;5041160;28;20271;-80
2021/08/14 09:54:55;;;;;;;2.05;1.95;;;38.80;32.40;;;;;;5043687;28;20201;-75
2021/08/14 09:57:25;;;;;;;4.05;2.55;;;38.80;32.40;;;;;;5050473;28;20208;-78
2021/08/14 09:59:53;;;;;;;2.83;2.50;;;39.10;32.00;;;;;;5045314;28;20344;-78
2021/08/14 10:02:27;;;;;;;2.58;2.38;;;39.30;31.90;;;;;;5048350;28;20620;-78
2021/08/14 10:04:57;;;;;;;2.80;2.60;;;39.40;31.80;;;;;;5049057;28;20195;-78
2021/08/14 10:07:25;;;;;;;2.10;1.90;;;39.00;32.00;;;;;;5045779;28;20232;-78
2021/08/14 10:09:53;;;;;;;4.28;2.25;;;38.30;32.30;;;;;;5042905;28;20308;-78
2021/08/14 10:12:21;;;;;;;2.42;2.15;;;38.20;32.10;;;;;;5049060;28;20220;-81
2021/08/14 10:14:51;;;;;;;2.35;2.10;;;38.10;32.20;;;;;;5047682;28;20236;-76
2021/08/14 10:17:23;;;;;;;3.22;2.17;;;38.50;32.00;;;;;;5048008;28;20209;-79
2021/08/14 10:19:53;;;;;;;4.97;2.00;;;39.20;31.20;;;;;;5037222;28;20229;-80
2021/08/14 10:22:25;;;;;;;2.38;2.08;;;39.70;30.70;;;;;;5041134;28;20229;-76
2021/08/14 10:24:54;;;;;;;2.72;2.40;;;40.10;30.50;;;;;;5043254;28;20683;-81
2021/08/14 10:27:22;;;;;;;4.30;2.25;;;40.60;29.80;;;;;;5044164;28;20205;-83
2021/08/14 10:29:52;;;;;;;3.08;2.50;;;41.10;29.30;;;;;;5059336;28;20205;-84
2021/08/14 10:32:46;;;;;;;4.90;2.83;;;41.50;29.30;;;;;;5044005;28;20284;-81
2021/08/14 10:35:37;;;;;;;2.13;2.03;;;41.50;28.60;;;;;;5041193;28;20208;-80
2021/08/14 10:38:05;;;;;;;2.15;2.05;;;41.20;28.50;;;;;;5058155;28;20209;-81
2021/08/14 10:40:57;;;;;;;3.67;2.80;;;41.00;28.50;;;;;;5042901;28;20217;-81
2021/08/14 10:43:58;;;;;;;3.78;2.38;;;40.80;28.30;;;;;;5045403;28;20612;-81
2021/08/14 10:46:48;;;;;;;2.45;2.20;;;40.40;28.60;;;;;;5043102;28;20201;-81
2021/08/14 10:49:22;;;;;;;2.30;2.10;;;40.30;28.70;;;;;;5041818;28;20198;-82
2021/08/14 10:52:09;;;;;;;2.80;2.47;;;40.30;28.70;;;;;;5045043;28;20196;-81
2021/08/14 10:55:05;;;;;;;2.90;2.58;;;40.40;28.60;;;;;;5031972;28;20206;-84
2021/08/14 10:57:53;;;;;;;2.35;2.20;;;40.30;28.50;;;;;;5043260;28;20213;-80
2021/08/14 11:00:29;;;;;;;2.30;2.05;;;40.30;28.60;;;;;;4984157;28;20857;-83
2021/08/14 11:03:06;;;;;;;2.72;2.53;;;40.20;28.70;;;;;;4968009;28;21379;-83
2021/08/14 11:05:34;;;;;;;2.83;2.63;;;40.20;28.90;;;;;;4984123;28;20203;-84
2021/08/14 11:08:01;;;;;;;2.03;1.92;;;39.90;29.00;;;;;;4981121;28;20559;-83
2021/08/14 11:10:46;;;;;;;3.85;2.95;;;39.80;29.30;;;;;;4984752;28;20206;-83
2021/08/14 11:13:49;;;;;;;2.78;2.58;;;39.80;29.10;;;;;;4988264;28;20237;-83
2021/08/14 11:16:58;;;;;;;2.40;2.20;;;39.00;29.50;;;;;;4976662;28;20258;-81
2021/08/14 11:19:44;;;;;;;2.72;2.08;;;37.90;29.90;;;;;;4905812;29;20758;-80
2021/08/14 11:22:23;;;;;;;2.33;2.15;;;37.00;30.40;;;;;;4902217;29;20528;-80
2021/08/14 11:24:51;;;;;;;3.17;2.30;;;36.50;30.90;;;;;;4898710;29;20214;-80
2021/08/14 11:27:23;;;;;;;2.85;1.90;;;36.30;31.20;;;;;;4889550;29;20258;-80
2021/08/14 11:29:59;;;;;;;2.10;2.00;;;36.20;31.30;;;;;;4894457;29;20385;-81
2021/08/14 11:32:26;;;;;;;4.28;2.13;;;36.00;31.60;;;;;;4903392;29;20213;-80
2021/08/14 11:34:56;;;;;;;5.43;2.45;;;35.80;31.90;;;;;;4905102;29;20655;-81
2021/08/14 11:37:23;;;;;;;2.88;2.17;;;35.70;32.00;;;;;;4941329;28;20723;-80
2021/08/14 11:39:57;;;;;;;2.63;1.80;;;35.50;32.20;;;;;;4965838;28;20234;-80
2021/08/14 11:42:26;;;;;;;2.22;1.98;;;35.10;32.50;;;;;;4982374;28;20207;-80
2021/08/14 11:44:55;;;;;;;3.50;2.00;;;34.90;33.40;;;;;;4965250;28;20202;-79
2021/08/14 11:47:34;;;;;;;2.25;2.00;;;34.60;33.00;;;;;;4976869;28;20286;-77
2021/08/14 11:50:06;;;;;;;2.50;1.90;;;34.50;33.20;;;;;;4982880;28;20238;-80
2021/08/14 11:52:33;;;;;;;1.83;1.73;;;34.30;33.30;;;;;;4980410;28;20199;-78
2021/08/14 11:55:03;;;;;;;2.45;2.00;;;34.30;33.40;;;;;;5006578;28;20209;-81
2021/08/14 11:57:35;;;;;;;1.90;1.70;;;34.40;33.50;;;;;;5038427;28;20205;-81
2021/08/14 12:00:20;;;;;;;2.28;1.98;;;34.30;33.40;;;;;;5045646;28;20307;-81
2021/08/14 12:02:47;;;;;;;1.77;1.60;;;34.20;33.70;;;;;;5040830;28;20206;-80
2021/08/14 12:05:23;;;;;;;2.63;1.98;;;34.40;33.80;;;;;;5043402;28;20201;-82
2021/08/14 12:07:50;;;;;;;2.13;1.92;;;34.70;33.60;;;;;;5042704;28;20663;-81
2021/08/14 12:10:21;;;;;;;2.20;1.83;;;35.00;33.40;;;;;;5056871;28;20204;-83
2021/08/14 12:12:56;;;;;;;2.13;1.65;;;35.20;33.20;;;;;;5043642;28;20232;-80
2021/08/14 12:15:34;;;;;;;2.00;1.90;;;35.30;33.20;;;;;;5038062;28;20560;-80
2021/08/14 12:18:01;;;;;;;1.80;1.70;;;35.10;33.30;;;;;;5036368;28;20665;-81
2021/08/14 12:20:34;;;;;;;2.13;1.90;;;35.00;33.40;;;;;;5043548;28;20223;-82
2021/08/14 12:23:21;;;;;;;2.88;2.00;;;34.80;33.50;;;;;;5038752;28;20293;-80
2021/08/14 12:25:51;;;;;;;2.75;1.67;;;34.50;33.60;;;;;;5041399;28;20197;-81
2021/08/14 12:28:18;;;;;;;2.92;2.13;;;34.20;33.90;;;;;;5043083;28;20221;-81
2021/08/14 12:30:46;;;;;;;4.55;1.73;;;33.90;34.20;;;;;;5042133;28;20633;-79
2021/08/14 12:33:24;;;;;;;1.83;1.70;;;33.60;34.40;;;;;;5041502;28;20213;-77
2021/08/14 12:36:01;;;;;;;1.65;1.50;;;33.40;34.70;;;;;;5044386;28;20209;-79
2021/08/14 12:38:28;;;;;;;2.20;1.58;;;33.30;34.90;;;;;;5041437;28;20725;-79
2021/08/14 12:40:56;;;;;;;1.85;1.70;;;33.20;35.10;;;;;;5042192;28;20210;-81
2021/08/14 12:43:24;;;;;;;1.65;1.45;;;33.00;35.30;;;;;;5047215;28;20229;-82
2021/08/14 12:45:51;;;;;;;2.35;1.77;;;32.80;35.40;;;;;;5046040;28;20194;-80
2021/08/14 12:48:18;;;;;;;2.33;2.05;;;32.60;35.50;;;;;;5045547;28;20213;-81
2021/08/14 12:50:45;;;;;;;3.05;1.88;;;32.40;35.80;;;;;;5043667;28;20447;-80
2021/08/14 12:53:16;;;;;;;1.85;1.48;;;32.20;35.70;;;;;;5043323;28;20194;-81
2021/08/14 12:55:45;;;;;;;1.50;1.40;;;32.10;35.90;;;;;;5043036;28;20222;-79
2021/08/14 12:58:13;;;;;;;2.10;1.90;;;31.90;36.10;;;;;;5042337;28;20202;-79